Time;durP1;ratioP1;P1;durP2;ratioP2;P2;SDS_P1;SDS_P2;PMS_P1;PMS_P2;Temp;Humidity;BMP_temperature;BMP_pressure;BME280_temperature;BME280_humidity;BME280_pressure;Samples;Min_cycle;Max_cycle;Signal;HPM_P1;HPM_P2
2023/05/08 00:02:12;;;;;;;7.72;3.88;;;;;;;;;;10305807;28;20023;-48
2023/05/08 00:07:12;;;;;;;8.98;4.40;;;;;;;;;;10295226;28;20031;-47
2023/05/08 00:12:13;;;;;;;6.53;4.60;;;;;;;;;;10306834;28;20034;-48
2023/05/08 00:17:13;;;;;;;5.63;3.92;;;;;;;;;;10293792;28;20031;-49
2023/05/08 00:22:14;;;;;;;5.60;4.20;;;;;;;;;;10293978;28;20364;-48
2023/05/08 00:27:15;;;;;;;7.28;3.83;;;;;;;;;;10294411;28;20035;-52
2023/05/08 00:32:15;;;;;;;4.57;3.90;;;;;;;;;;10294085;28;20390;-48
2023/05/08 00:37:16;;;;;;;4.50;3.47;;;;;;;;;;10294065;28;20033;-63
2023/05/08 00:42:16;;;;;;;5.47;3.97;;;;;;;;;;10318208;28;20053;-52
2023/05/08 00:47:19;;;;;;;4.60;3.70;;;;;;;;;;10293031;28;20083;-48
2023/05/08 00:52:19;;;;;;;4.55;3.55;;;;;;;;;;10291956;28;20043;-50
2023/05/08 00:57:21;;;;;;;5.78;4.00;;;;;;;;;;10293169;28;20490;-47
2023/05/08 01:02:22;;;;;;;4.38;3.83;;;;;;;;;;10303912;28;20037;-54
2023/05/08 01:07:23;;;;;;;4.03;3.63;;;;;;;;;;10293012;28;20027;-49
2023/05/08 01:12:35;;;;;;;4.03;3.60;;;;;;;;;;10305051;28;20031;-48
2023/05/08 01:17:56;;;;;;;4.15;3.42;;;;;;;;;;10291951;28;20026;-60
2023/05/08 01:23:34;;;;;;;4.22;3.78;;;;;;;;;;10291647;28;20035;-59
2023/05/08 01:28:56;;;;;;;4.67;3.80;;;;;;;;;;10317217;28;20081;-48
2023/05/08 01:34:10;;;;;;;4.45;3.10;;;;;;;;;;10300539;28;20026;-56
2023/05/08 01:39:51;;;;;;;4.22;3.50;;;;;;;;;;10299207;28;20030;-52
2023/05/08 01:45:09;;;;;;;3.60;3.13;;;;;;;;;;10293485;28;20047;-48
2023/05/08 01:50:21;;;;;;;5.00;3.28;;;;;;;;;;10302410;28;20023;-48
2023/05/08 01:55:36;;;;;;;3.30;3.03;;;;;;;;;;10313312;28;20372;-49
2023/05/08 02:00:41;;;;;;;3.85;3.03;;;;;;;;;;10285697;28;20027;-48
2023/05/08 02:05:43;;;;;;;4.50;3.03;;;;;;;;;;10272516;28;20390;-49
2023/05/08 02:10:46;;;;;;;3.97;3.03;;;;;;;;;;10300386;28;20034;-47
2023/05/08 02:15:48;;;;;;;3.65;3.35;;;;;;;;;;10290077;28;20033;-56
2023/05/08 02:20:51;;;;;;;4.25;3.17;;;;;;;;;;10298395;28;20080;-47
2023/05/08 02:25:53;;;;;;;5.53;3.30;;;;;;;;;;10290060;28;20031;-54
2023/05/08 02:30:55;;;;;;;3.22;2.92;;;;;;;;;;10312029;28;20027;-50
2023/05/08 02:35:57;;;;;;;4.15;3.08;;;;;;;;;;10287713;28;20502;-60
2023/05/08 02:41:02;;;;;;;3.05;2.75;;;;;;;;;;10319415;28;20037;-52
2023/05/08 02:46:14;;;;;;;3.65;2.83;;;;;;;;;;10294088;28;20591;-50
2023/05/08 02:51:21;;;;;;;3.67;3.08;;;;;;;;;;10288472;28;20023;-59
2023/05/08 02:57:02;;;;;;;3.10;2.40;;;;;;;;;;10289078;28;20077;-57
2023/05/08 03:02:14;;;;;;;2.72;2.40;;;;;;;;;;10290180;28;20042;-59
2023/05/08 03:07:15;;;;;;;4.00;2.67;;;;;;;;;;10288179;28;20058;-61
2023/05/08 03:12:23;;;;;;;2.78;2.55;;;;;;;;;;10289190;28;20023;-61
2023/05/08 03:17:27;;;;;;;3.90;2.95;;;;;;;;;;10272262;28;20046;-50
2023/05/08 03:22:29;;;;;;;2.50;2.30;;;;;;;;;;10300711;28;20494;-50
2023/05/08 03:27:31;;;;;;;3.10;2.50;;;;;;;;;;10310760;28;20026;-49
2023/05/08 03:32:34;;;;;;;3.33;2.67;;;;;;;;;;10288995;28;20042;-53
2023/05/08 03:37:35;;;;;;;2.95;2.38;;;;;;;;;;10299479;28;20031;-48
2023/05/08 03:42:37;;;;;;;3.05;2.50;;;;;;;;;;10286761;28;20034;-52
2023/05/08 03:47:39;;;;;;;2.80;2.55;;;;;;;;;;10292588;28;20101;-50
2023/05/08 03:52:40;;;;;;;2.20;2.00;;;;;;;;;;10294595;28;20386;-51
2023/05/08 03:57:56;;;;;;;6.32;2.70;;;;;;;;;;10295596;28;20032;-51
2023/05/08 04:03:08;;;;;;;2.63;2.42;;;;;;;;;;10306151;28;20041;-58
2023/05/08 04:08:19;;;;;;;2.78;2.28;;;;;;;;;;10294823;28;20130;-51
2023/05/08 04:13:27;;;;;;;2.42;2.22;;;;;;;;;;10319074;28;20037;-52
2023/05/08 04:18:29;;;;;;;2.63;2.42;;;;;;;;;;10295278;28;20023;-49
2023/05/08 04:23:31;;;;;;;3.35;2.33;;;;;;;;;;10327863;28;20038;-50
2023/05/08 04:28:33;;;;;;;3.20;2.40;;;;;;;;;;10331341;28;20389;-51
2023/05/08 04:33:35;;;;;;;3.03;2.47;;;;;;;;;;10322242;28;20113;-55
2023/05/08 04:38:36;;;;;;;5.20;2.40;;;;;;;;;;10324324;28;20508;-52
2023/05/08 04:43:37;;;;;;;3.00;2.55;;;;;;;;;;10305371;28;20471;-55
2023/05/08 04:48:38;;;;;;;3.83;2.63;;;;;;;;;;10324944;28;20121;-48
2023/05/08 04:53:38;;;;;;;2.30;2.15;;;;;;;;;;10341422;28;20478;-56
2023/05/08 04:58:39;;;;;;;2.55;2.33;;;;;;;;;;10308223;28;20050;-47
2023/05/08 05:03:40;;;;;;;6.65;2.50;;;;;;;;;;10314991;28;20057;-48
2023/05/08 05:08:41;;;;;;;2.40;2.20;;;;;;;;;;10329058;28;20026;-48
2023/05/08 05:13:42;;;;;;;2.42;2.22;;;;;;;;;;10336400;28;20462;-49
2023/05/08 05:18:42;;;;;;;2.35;2.20;;;;;;;;;;10330470;28;20474;-51
2023/05/08 05:23:43;;;;;;;4.88;2.42;;;;;;;;;;10328235;28;20037;-48
2023/05/08 05:28:43;;;;;;;2.22;2.03;;;;;;;;;;10331635;28;20010;-51
2023/05/08 05:33:44;;;;;;;2.55;1.90;;;;;;;;;;10328502;28;20030;-48
2023/05/08 05:38:45;;;;;;;2.97;2.30;;;;;;;;;;10324743;28;20085;-62
2023/05/08 05:43:46;;;;;;;2.75;2.08;;;;;;;;;;10316035;28;20055;-58
2023/05/08 05:48:47;;;;;;;3.58;2.10;;;;;;;;;;10327468;28;20042;-60
2023/05/08 05:53:47;;;;;;;5.28;2.25;;;;;;;;;;10340031;28;20109;-56
2023/05/08 05:58:48;;;;;;;6.22;2.80;;;;;;;;;;10332190;28;20026;-57
2023/05/08 06:03:49;;;;;;;17.38;2.33;;;;;;;;;;10324822;28;20065;-56
2023/05/08 06:08:49;;;;;;;19.63;3.00;;;;;;;;;;10325440;28;20038;-56
2023/05/08 06:13:50;;;;;;;16.60;2.92;;;;;;;;;;10330559;28;20030;-59
2023/05/08 06:18:50;;;;;;;20.95;2.90;;;;;;;;;;10327815;28;20030;-60
2023/05/08 06:23:51;;;;;;;10.55;2.97;;;;;;;;;;10326459;28;20030;-51
2023/05/08 06:28:52;;;;;;;5.85;2.47;;;;;;;;;;10325470;28;20085;-52
2023/05/08 06:33:52;;;;;;;14.48;2.30;;;;;;;;;;10326004;28;20022;-53
2023/05/08 06:38:53;;;;;;;6.00;2.40;;;;;;;;;;10343419;28;20031;-54
2023/05/08 06:43:53;;;;;;;8.15;2.70;;;;;;;;;;10308276;28;20060;-60
2023/05/08 06:48:54;;;;;;;9.40;2.60;;;;;;;;;;10289223;28;20486;-53
2023/05/08 06:53:54;;;;;;;11.00;2.30;;;;;;;;;;10301562;28;20039;-50
2023/05/08 06:58:55;;;;;;;6.13;2.25;;;;;;;;;;10288799;28;20030;-54
2023/05/08 07:03:55;;;;;;;7.20;2.17;;;;;;;;;;10289462;28;20027;-50
2023/05/08 07:08:56;;;;;;;8.27;3.00;;;;;;;;;;10289700;28;20034;-49
2023/05/08 07:13:57;;;;;;;3.97;2.35;;;;;;;;;;10289079;28;20522;-48
2023/05/08 07:18:57;;;;;;;4.10;1.73;;;;;;;;;;10289429;28;20035;-48
2023/05/08 07:23:58;;;;;;;8.00;2.70;;;;;;;;;;10308303;28;20058;-51
2023/05/08 07:28:58;;;;;;;6.57;2.17;;;;;;;;;;10296954;28;20046;-52
2023/05/08 07:33:59;;;;;;;3.78;2.60;;;;;;;;;;10303420;28;20034;-52
2023/05/08 07:39:00;;;;;;;5.40;2.50;;;;;;;;;;10312961;28;20030;-50
2023/05/08 07:44:00;;;;;;;4.10;1.92;;;;;;;;;;10291039;28;20050;-52
2023/05/08 07:49:01;;;;;;;3.25;2.10;;;;;;;;;;10296004;28;20054;-51
2023/05/08 07:54:02;;;;;;;10.02;2.50;;;;;;;;;;10296205;28;20541;-54
2023/05/08 07:59:02;;;;;;;8.35;2.50;;;;;;;;;;10295486;28;20147;-50
2023/05/08 08:04:03;;;;;;;5.68;2.25;;;;;;;;;;10294480;28;20027;-50
2023/05/08 08:09:04;;;;;;;2.42;2.00;;;;;;;;;;10306709;28;20033;-48
2023/05/08 08:14:04;;;;;;;2.90;1.80;;;;;;;;;;10295007;28;20042;-52
2023/05/08 08:19:05;;;;;;;5.00;2.55;;;;;;;;;;10307148;28;20081;-49
2023/05/08 08:24:06;;;;;;;4.47;2.38;;;;;;;;;;10306764;28;20383;-51
2023/05/08 08:29:07;;;;;;;7.47;2.65;;;;;;;;;;10293795;28;20030;-61
2023/05/08 08:34:07;;;;;;;5.68;2.25;;;;;;;;;;10291385;28;20034;-61
2023/05/08 08:39:08;;;;;;;2.35;2.03;;;;;;;;;;10301319;28;20030;-61
2023/05/08 08:44:08;;;;;;;6.03;2.55;;;;;;;;;;10302333;28;20056;-61
2023/05/08 08:49:12;;;;;;;9.52;2.55;;;;;;;;;;10296964;28;20438;-53
2023/05/08 08:54:20;;;;;;;5.72;2.30;;;;;;;;;;10303448;28;20383;-54
2023/05/08 08:59:24;;;;;;;10.10;2.20;;;;;;;;;;10304434;28;20030;-52
2023/05/08 09:04:26;;;;;;;3.25;2.20;;;;;;;;;;10305415;28;20554;-52
2023/05/08 09:09:27;;;;;;;3.83;2.25;;;;;;;;;;10305285;28;20166;-56
2023/05/08 09:14:28;;;;;;;4.32;1.98;;;;;;;;;;10293063;28;20553;-50
2023/05/08 09:19:29;;;;;;;3.03;2.13;;;;;;;;;;10302958;28;20035;-48
2023/05/08 09:24:59;;;;;;;5.38;2.47;;;;;;;;;;10291406;28;20498;-48
2023/05/08 09:30:09;;;;;;;9.93;2.38;;;;;;;;;;10280510;28;20060;-58
2023/05/08 09:35:11;;;;;;;4.32;2.40;;;;;;;;;;10291426;28;20035;-50
2023/05/08 09:40:17;;;;;;;2.67;2.10;;;;;;;;;;10291034;28;20030;-50
2023/05/08 09:45:30;;;;;;;3.17;2.22;;;;;;;;;;10302205;28;20094;-50
2023/05/08 09:50:31;;;;;;;4.10;2.60;;;;;;;;;;10303477;28;20058;-52
2023/05/08 09:55:46;;;;;;;3.00;2.00;;;;;;;;;;10290729;28;20029;-53
2023/05/08 10:00:47;;;;;;;4.05;2.10;;;;;;;;;;10303013;28;20033;-48
2023/05/08 10:05:47;;;;;;;5.55;2.30;;;;;;;;;;10290068;28;20038;-47
2023/05/08 10:10:48;;;;;;;2.40;2.10;;;;;;;;;;10290185;28;20027;-51
2023/05/08 10:15:53;;;;;;;3.50;2.17;;;;;;;;;;10302635;28;20041;-48
2023/05/08 10:20:58;;;;;;;4.57;2.05;;;;;;;;;;10313135;28;20033;-56
2023/05/08 10:26:11;;;;;;;2.78;2.00;;;;;;;;;;10301150;28;20510;-57
2023/05/08 10:31:17;;;;;;;3.17;2.10;;;;;;;;;;10302177;28;20027;-56
2023/05/08 10:36:17;;;;;;;1.90;1.80;;;;;;;;;;10289267;28;20166;-59
2023/05/08 10:41:19;;;;;;;2.80;2.17;;;;;;;;;;10276322;28;20022;-54
2023/05/08 10:46:39;;;;;;;7.55;2.00;;;;;;;;;;10293689;28;20498;-59
2023/05/08 10:52:13;;;;;;;3.25;2.03;;;;;;;;;;10273180;28;20442;-49
2023/05/08 10:57:14;;;;;;;2.63;2.30;;;;;;;;;;10293270;28;20023;-49
2023/05/08 11:02:15;;;;;;;2.85;2.20;;;;;;;;;;10297191;28;20034;-50
2023/05/08 11:07:16;;;;;;;3.25;2.20;;;;;;;;;;10308553;28;20126;-53
2023/05/08 11:12:26;;;;;;;2.42;2.22;;;;;;;;;;10322781;28;20479;-51
2023/05/08 11:17:27;;;;;;;3.33;2.30;;;;;;;;;;10309152;28;20054;-48
2023/05/08 11:22:31;;;;;;;3.47;2.25;;;;;;;;;;10308190;28;20031;-48
2023/05/08 11:27:36;;;;;;;2.75;2.42;;;;;;;;;;10296584;28;20038;-51
2023/05/08 11:32:58;;;;;;;2.28;2.03;;;;;;;;;;10308541;28;20031;-50
2023/05/08 11:38:22;;;;;;;4.07;2.35;;;;;;;;;;10307589;28;20030;-49
2023/05/08 11:49:01;;;;;;;3.40;2.15;;;;;;;;;;10066642;29;20045;-47
2023/05/08 11:54:02;;;;;;;2.47;2.10;;;;;;;;;;10065989;29;20055;-56
2023/05/08 11:59:04;;;;;;;2.92;2.30;;;;;;;;;;10080357;29;20073;-53
2023/05/08 12:04:10;;;;;;;2.50;2.30;;;;;;;;;;10074887;29;20055;-50
2023/05/08 12:09:17;;;;;;;4.30;2.20;;;;;;;;;;10075382;29;20064;-57
2023/05/08 12:14:17;;;;;;;4.45;2.20;;;;;;;;;;10064656;29;20042;-54
2023/05/08 12:19:18;;;;;;;7.50;2.10;;;;;;;;;;10065423;29;20046;-61
2023/05/08 12:24:21;;;;;;;3.97;2.38;;;;;;;;;;10173470;28;20080;-60
2023/05/08 12:29:22;;;;;;;4.13;2.25;;;;;;;;;;10318971;28;20029;-53
2023/05/08 12:34:23;;;;;;;2.75;2.10;;;;;;;;;;10302468;28;20509;-56
2023/05/08 12:39:24;;;;;;;3.10;2.10;;;;;;;;;;10292164;28;20098;-56
2023/05/08 12:44:25;;;;;;;3.75;2.17;;;;;;;;;;10297628;28;20070;-60
2023/05/08 12:49:28;;;;;;;4.03;2.25;;;;;;;;;;10309846;28;20032;-59
2023/05/08 12:54:40;;;;;;;2.95;2.20;;;;;;;;;;10311864;28;20533;-51
2023/05/08 12:59:43;;;;;;;3.85;2.00;;;;;;;;;;10316035;28;20097;-54
2023/05/08 13:04:44;;;;;;;3.38;2.50;;;;;;;;;;10302879;28;20070;-58
2023/05/08 13:09:56;;;;;;;5.35;2.42;;;;;;;;;;10314932;28;20110;-49
2023/05/08 13:14:57;;;;;;;6.45;2.15;;;;;;;;;;10308096;28;20045;-58
2023/05/08 13:19:57;;;;;;;4.50;2.45;;;;;;;;;;10324220;28;20038;-59
2023/05/08 13:24:58;;;;;;;3.47;2.55;;;;;;;;;;10324590;28;20271;-61
2023/05/08 13:29:59;;;;;;;4.55;2.35;;;;;;;;;;10306835;28;20031;-60
2023/05/08 13:34:59;;;;;;;2.38;2.08;;;;;;;;;;10303511;28;20035;-56
2023/05/08 13:40:00;;;;;;;5.22;2.80;;;;;;;;;;10298137;28;20022;-60
2023/05/08 13:45:00;;;;;;;2.47;2.00;;;;;;;;;;10305643;28;20046;-58
2023/05/08 13:50:01;;;;;;;5.70;2.70;;;;;;;;;;10299675;28;20088;-59
2023/05/08 13:55:09;;;;;;;10.52;2.30;;;;;;;;;;10327376;28;20393;-59
2023/05/08 14:00:10;;;;;;;;;;;;;;;;;;10313503;28;20089;-60
2023/05/08 14:05:11;;;;;;;2.58;2.30;;;;;;;;;;10320663;28;19981;-49
2023/05/08 14:10:12;;;;;;;2.35;2.00;;;;;;;;;;10323334;28;20022;-48
2023/05/08 14:15:12;;;;;;;2.83;2.40;;;;;;;;;;10343691;28;20088;-49
2023/05/08 14:20:13;;;;;;;5.55;2.50;;;;;;;;;;10319512;28;20026;-49
2023/05/08 14:25:14;;;;;;;7.75;2.58;;;;;;;;;;10328293;28;20028;-58
2023/05/08 14:30:14;;;;;;;3.25;2.03;;;;;;;;;;10323191;28;20037;-54
2023/05/08 14:35:15;;;;;;;3.88;2.40;;;;;;;;;;10329687;28;20129;-58
2023/05/08 14:40:15;;;;;;;2.50;2.30;;;;;;;;;;10316084;28;20026;-57
2023/05/08 14:45:16;;;;;;;2.65;2.30;;;;;;;;;;10299126;28;20406;-59
2023/05/08 14:50:17;;;;;;;5.13;2.42;;;;;;;;;;10306111;28;20030;-56
2023/05/08 14:55:19;;;;;;;2.35;2.00;;;;;;;;;;10313751;28;20472;-58
2023/05/08 15:00:20;;;;;;;3.30;2.47;;;;;;;;;;10320814;28;20026;-53
2023/05/08 15:05:20;;;;;;;4.72;2.75;;;;;;;;;;10327541;28;20038;-49
2023/05/08 15:10:21;;;;;;;4.20;2.50;;;;;;;;;;10326840;28;20030;-53
2023/05/08 15:15:22;;;;;;;3.00;2.67;;;;;;;;;;10325655;28;20118;-57
2023/05/08 15:20:22;;;;;;;5.75;2.78;;;;;;;;;;10309090;28;20033;-51
2023/05/08 15:25:24;;;;;;;6.78;2.58;;;;;;;;;;10324348;28;20394;-56
2023/05/08 15:30:25;;;;;;;6.80;2.55;;;;;;;;;;10325253;28;20041;-57
2023/05/08 15:35:25;;;;;;;2.80;2.35;;;;;;;;;;10323324;28;20027;-57
2023/05/08 15:40:26;;;;;;;3.28;2.33;;;;;;;;;;10320587;28;20054;-54
2023/05/08 15:45:27;;;;;;;3.25;2.42;;;;;;;;;;10331642;28;20050;-55
2023/05/08 15:50:27;;;;;;;3.72;2.50;;;;;;;;;;10331609;28;20036;-58
2023/05/08 15:55:28;;;;;;;10.98;2.60;;;;;;;;;;10307484;28;20049;-57
2023/05/08 16:00:29;;;;;;;3.03;2.72;;;;;;;;;;10332077;28;20026;-58
2023/05/08 16:05:30;;;;;;;3.22;2.53;;;;;;;;;;10318507;28;20030;-58
2023/05/08 16:10:31;;;;;;;2.60;2.35;;;;;;;;;;10319008;28;20543;-59
2023/05/08 16:15:31;;;;;;;3.53;2.20;;;;;;;;;;10331201;28;20477;-55
2023/05/08 16:20:32;;;;;;;6.70;2.33;;;;;;;;;;10329173;28;20026;-59
2023/05/08 16:25:32;;;;;;;3.70;2.60;;;;;;;;;;10331295;28;20112;-51
2023/05/08 16:30:33;;;;;;;4.55;2.17;;;;;;;;;;10314518;28;20508;-51
2023/05/08 16:35:34;;;;;;;7.28;2.95;;;;;;;;;;10303648;28;20034;-54
2023/05/08 16:40:35;;;;;;;4.90;2.40;;;;;;;;;;10312213;28;20088;-59
2023/05/08 16:45:35;;;;;;;11.05;2.55;;;;;;;;;;10314033;28;20405;-61
2023/05/08 16:50:36;;;;;;;2.38;2.17;;;;;;;;;;10326579;28;20030;-49
2023/05/08 16:55:36;;;;;;;7.22;2.42;;;;;;;;;;10323573;28;20041;-57
2023/05/08 17:00:37;;;;;;;2.70;2.20;;;;;;;;;;10325422;28;20027;-56
2023/05/08 17:05:38;;;;;;;5.43;2.50;;;;;;;;;;10327384;28;20041;-53
2023/05/08 17:10:38;;;;;;;3.50;2.33;;;;;;;;;;10327116;28;20034;-55
2023/05/08 17:15:39;;;;;;;3.50;2.20;;;;;;;;;;10322378;28;20035;-53
2023/05/08 17:20:41;;;;;;;2.85;2.60;;;;;;;;;;10310807;28;20030;-56
2023/05/08 17:25:41;;;;;;;3.50;2.78;;;;;;;;;;10327591;28;20061;-54
2023/05/08 17:30:42;;;;;;;4.28;3.35;;;;;;;;;;10326175;28;20030;-52
2023/05/08 17:35:43;;;;;;;6.05;3.78;;;;;;;;;;10320258;28;20031;-55
2023/05/08 17:40:43;;;;;;;3.72;2.70;;;;;;;;;;10322352;28;20060;-50
2023/05/08 17:45:44;;;;;;;4.10;2.90;;;;;;;;;;10271095;28;1117309;-52
2023/05/08 17:50:45;;;;;;;7.22;3.80;;;;;;;;;;10321129;28;20427;-52
2023/05/08 17:55:46;;;;;;;3.85;3.45;;;;;;;;;;10295284;28;20073;-59
2023/05/08 18:00:46;;;;;;;6.07;3.45;;;;;;;;;;10314647;28;20029;-51
2023/05/08 18:05:47;;;;;;;6.22;3.70;;;;;;;;;;10325239;28;20034;-52
2023/05/08 18:10:48;;;;;;;8.05;3.50;;;;;;;;;;10326789;28;20080;-53
2023/05/08 18:15:48;;;;;;;9.23;3.80;;;;;;;;;;10326299;28;20041;-49
2023/05/08 18:20:58;;;;;;;4.57;3.13;;;;;;;;;;10325582;28;20018;-54
2023/05/08 18:25:59;;;;;;;5.03;3.83;;;;;;;;;;10325920;28;20390;-51
2023/05/08 18:30:59;;;;;;;6.45;3.78;;;;;;;;;;10300948;28;20290;-49
2023/05/08 18:36:00;;;;;;;7.20;4.10;;;;;;;;;;10299547;28;20223;-57
2023/05/08 18:41:02;;;;;;;4.18;3.40;;;;;;;;;;10314693;28;20034;-60
2023/05/08 18:46:11;;;;;;;4.80;3.97;;;;;;;;;;10320703;28;20049;-62
2023/05/08 18:51:11;;;;;;;5.93;3.85;;;;;;;;;;10311128;28;20030;-59
2023/05/08 18:56:12;;;;;;;4.68;4.15;;;;;;;;;;10321735;28;20030;-60
2023/05/08 19:01:18;;;;;;;5.22;4.70;;;;;;;;;;10316210;28;20089;-58
2023/05/08 19:06:19;;;;;;;5.07;4.35;;;;;;;;;;10323673;28;20409;-55
2023/05/08 19:11:20;;;;;;;5.43;4.43;;;;;;;;;;10329318;28;20037;-51
2023/05/08 19:16:21;;;;;;;3.97;3.65;;;;;;;;;;10319833;28;20022;-54
2023/05/08 19:21:22;;;;;;;5.18;3.92;;;;;;;;;;10318696;28;20034;-57
2023/05/08 19:26:23;;;;;;;4.35;3.63;;;;;;;;;;10335786;28;20037;-54
2023/05/08 19:31:23;;;;;;;9.13;4.35;;;;;;;;;;10330015;28;20244;-61
2023/05/08 19:36:24;;;;;;;7.15;4.32;;;;;;;;;;10323562;28;20246;-62
2023/05/08 19:41:25;;;;;;;4.60;4.18;;;;;;;;;;10306581;28;20161;-52
2023/05/08 19:46:26;;;;;;;4.22;3.80;;;;;;;;;;10373814;23;20506;-62
2023/05/08 19:51:26;;;;;;;5.00;4.30;;;;;;;;;;10373281;28;20026;-62
2023/05/08 19:56:27;;;;;;;4.60;3.78;;;;;;;;;;10355201;28;20059;-62
2023/05/08 20:01:27;;;;;;;4.80;4.25;;;;;;;;;;10379183;28;20084;-62
2023/05/08 20:06:28;;;;;;;6.47;3.60;;;;;;;;;;10357102;28;20030;-61
2023/05/08 20:11:29;;;;;;;5.15;3.15;;;;;;;;;;10367004;28;20025;-61
2023/05/08 20:16:30;;;;;;;7.38;3.50;;;;;;;;;;10391939;28;20067;-61
2023/05/08 20:21:32;;;;;;;4.47;3.38;;;;;;;;;;10399640;28;20465;-61
2023/05/08 20:26:33;;;;;;;6.22;3.50;;;;;;;;;;10382438;28;20473;-60
2023/05/08 20:31:33;;;;;;;4.45;3.20;;;;;;;;;;10366139;28;20038;-61
2023/05/08 20:36:34;;;;;;;4.65;3.20;;;;;;;;;;10369157;28;20026;-61
2023/05/08 20:41:35;;;;;;;4.30;3.13;;;;;;;;;;10377614;28;20041;-61
2023/05/08 20:46:35;;;;;;;4.70;3.45;;;;;;;;;;10370400;28;20054;-61
2023/05/08 20:51:36;;;;;;;7.78;3.22;;;;;;;;;;10369272;28;20026;-61
2023/05/08 20:56:36;;;;;;;3.63;3.10;;;;;;;;;;10381500;28;20081;-61
2023/05/08 21:01:37;;;;;;;3.47;2.67;;;;;;;;;;10374119;28;20053;-61
2023/05/08 21:06:38;;;;;;;4.15;3.28;;;;;;;;;;10381660;28;20036;-61
2023/05/08 21:11:38;;;;;;;3.03;2.72;;;;;;;;;;10382827;28;20033;-61
2023/05/08 21:16:39;;;;;;;4.05;3.05;;;;;;;;;;10366785;28;20037;-63
2023/05/08 21:21:40;;;;;;;3.20;2.88;;;;;;;;;;10368381;28;20025;-61
2023/05/08 21:26:40;;;;;;;2.80;2.60;;;;;;;;;;10366401;28;20025;-61
2023/05/08 21:31:41;;;;;;;3.67;2.72;;;;;;;;;;10362517;28;20033;-62
2023/05/08 21:36:42;;;;;;;4.63;2.88;;;;;;;;;;10371245;28;20030;-62
2023/05/08 21:41:43;;;;;;;7.78;2.63;;;;;;;;;;10382778;28;20028;-62
2023/05/08 21:46:44;;;;;;;4.15;2.80;;;;;;;;;;10392461;28;20069;-61
2023/05/08 21:51:44;;;;;;;6.47;2.65;;;;;;;;;;10389824;28;20504;-61
2023/05/08 21:56:45;;;;;;;4.80;2.83;;;;;;;;;;10391593;28;20026;-62
2023/05/08 22:01:45;;;;;;;9.88;2.63;;;;;;;;;;10402065;28;20026;-62
2023/05/08 22:06:46;;;;;;;2.90;2.65;;;;;;;;;;10404604;28;20029;-62
2023/05/08 22:11:46;;;;;;;2.65;2.45;;;;;;;;;;10400533;28;20197;-62
2023/05/08 22:16:47;;;;;;;6.88;2.50;;;;;;;;;;10393197;28;20033;-62
2023/05/08 22:21:48;;;;;;;3.70;2.58;;;;;;;;;;10382799;28;20026;-62
2023/05/08 22:26:48;;;;;;;2.95;2.35;;;;;;;;;;10393999;28;20067;-62
2023/05/08 22:31:49;;;;;;;6.65;2.30;;;;;;;;;;10401067;28;20017;-62
2023/05/08 22:36:49;;;;;;;2.60;2.40;;;;;;;;;;10391870;28;20104;-62
2023/05/08 22:41:50;;;;;;;4.85;2.60;;;;;;;;;;10387129;28;20025;-62
2023/05/08 22:46:51;;;;;;;2.47;2.28;;;;;;;;;;10391355;28;20049;-62
2023/05/08 22:51:52;;;;;;;2.65;2.45;;;;;;;;;;10387503;28;20052;-62
2023/05/08 22:56:52;;;;;;;2.47;2.28;;;;;;;;;;10386604;28;20080;-62
2023/05/08 23:01:53;;;;;;;3.30;3.00;;;;;;;;;;10402388;28;20025;-62
2023/05/08 23:06:53;;;;;;;2.75;2.33;;;;;;;;;;10401850;28;20033;-62
2023/05/08 23:11:54;;;;;;;3.80;2.25;;;;;;;;;;10392599;28;20485;-62
2023/05/08 23:16:55;;;;;;;2.70;2.20;;;;;;;;;;10397931;28;20032;-62
2023/05/08 23:21:55;;;;;;;2.22;2.00;;;;;;;;;;10390588;28;20033;-62
2023/05/08 23:26:56;;;;;;;3.63;2.38;;;;;;;;;;10401591;28;20041;-60
2023/05/08 23:31:56;;;;;;;2.67;2.45;;;;;;;;;;10401266;28;20030;-61
2023/05/08 23:36:57;;;;;;;2.58;2.38;;;;;;;;;;10400272;28;20476;-62
2023/05/08 23:41:58;;;;;;;2.25;2.05;;;;;;;;;;10389042;28;20457;-62
2023/05/08 23:46:58;;;;;;;5.13;2.00;;;;;;;;;;10401961;28;20405;-62
2023/05/08 23:51:59;;;;;;;4.72;2.08;;;;;;;;;;10402779;28;20461;-61
2023/05/08 23:56:59;;;;;;;3.25;1.90;;;;;;;;;;10401393;28;20033;-62
